Time;durP1;ratioP1;P1;durP2;ratioP2;P2;SDS_P1;SDS_P2;PMS_P1;PMS_P2;Temp;Humidity;BMP_temperature;BMP_pressure;BME280_temperature;BME280_humidity;BME280_pressure;Samples;Min_cycle;Max_cycle;Signal;HPM_P1;HPM_P2
2021/04/11 00:00:43;;;;;;;4.50;3.70;;;8.70;1.00;;;9.69;55.43;94851.98;660864;211;27047;-71
2021/04/11 00:03:12;;;;;;;4.20;3.90;;;8.60;1.00;;;9.62;55.80;94848.98;655509;215;26597;-72
2021/04/11 00:05:41;;;;;;;3.67;3.37;;;8.50;1.00;;;9.59;55.94;94847.14;642856;220;24736;-72
2021/04/11 00:08:10;;;;;;;3.30;3.10;;;8.50;1.00;;;9.51;56.62;94844.64;650986;215;31809;-72
2021/04/11 00:10:39;;;;;;;3.55;3.03;;;8.30;1.00;;;9.44;56.64;94844.48;635510;220;31810;-71
2021/04/11 00:13:08;;;;;;;3.57;3.27;;;8.20;1.00;;;9.40;56.59;94839.06;640400;220;23453;-71
2021/04/11 00:15:37;;;;;;;4.17;3.33;;;8.20;20.90;;;9.39;56.69;94839.69;655069;215;24572;-72
2021/04/11 00:18:06;;;;;;;3.10;2.80;;;8.20;1.00;;;9.46;56.06;94834.30;631934;223;31920;-72
2021/04/11 00:20:35;;;;;;;3.60;3.30;;;8.30;1.00;;;9.44;55.93;94834.11;630255;225;23499;-72
2021/04/11 00:23:04;;;;;;;2.80;2.60;;;8.30;1.00;;;9.45;55.57;94824.81;656178;215;24461;-72
2021/04/11 00:25:33;;;;;;;3.05;2.75;;;8.30;1.00;;;9.46;55.83;94827.67;634800;220;31702;-71
2021/04/11 00:28:03;;;;;;;4.17;3.77;;;8.20;1.00;;;9.47;55.41;94828.72;641745;220;23508;-72
2021/04/11 00:30:32;;;;;;;4.97;4.57;;;8.10;1.00;;;9.23;58.25;94829.72;644742;220;24495;-72
2021/04/11 00:33:01;;;;;;;4.43;3.27;;;7.90;1.00;;;8.95;59.14;94822.84;655494;215;24480;-71
2021/04/11 00:35:54;;;;;;;3.40;3.10;;;7.20;1.00;;;8.75;60.01;94820.73;620620;226;32482;-71
2021/04/11 00:38:23;;;;;;;3.80;3.50;;;7.00;1.00;;;8.51;61.75;94821.65;616854;229;23512;-71
2021/04/11 00:40:56;;;;;;;3.90;3.60;;;6.70;1.00;;;8.40;61.97;94819.36;616225;230;24609;-71
2021/04/11 00:43:21;;;;;;;5.03;2.90;;;6.70;1.00;;;8.34;61.82;94819.16;614721;230;24646;-71
2021/04/11 00:45:58;;;;;;;4.13;3.77;;;6.70;1.00;;;8.59;60.25;94822.03;615911;230;24574;-72
2021/04/11 00:48:27;;;;;;;5.17;3.60;;;7.30;1.00;;;8.74;59.31;94811.88;615172;230;26049;-71
2021/04/11 00:50:56;;;;;;;4.50;3.27;;;7.70;1.00;;;8.84;58.64;94808.39;615126;229;24592;-71
2021/04/11 00:53:26;;;;;;;3.93;3.63;;;7.90;1.00;;;9.01;57.91;94807.98;615133;229;24624;-71
2021/04/11 00:55:55;;;;;;;3.60;3.30;;;8.00;1.00;;;9.11;57.32;94811.00;615770;230;24606;-72
2021/04/11 00:58:24;;;;;;;3.80;3.40;;;8.10;99.90;;;9.08;57.83;94807.59;615278;230;24662;-71
2021/04/11 01:00:53;;;;;;;4.33;3.17;;;7.80;1.00;;;8.86;58.99;94810.63;608041;230;24642;-74
2021/04/11 01:03:22;;;;;;;3.10;2.90;;;7.50;1.00;;;8.76;59.42;94808.44;604582;234;31070;-72
2021/04/11 01:05:51;;;;;;;2.73;2.53;;;7.30;1.00;;;8.69;60.11;94806.11;604573;234;24790;-72
2021/04/11 01:08:20;;;;;;;3.10;2.80;;;7.10;1.00;;;8.60;60.79;94804.27;609952;230;32440;-72
2021/04/11 01:10:52;;;;;;;3.80;3.40;;;7.00;99.90;;;8.54;61.70;94804.28;604514;234;24718;-71
2021/04/11 01:13:21;;;;;;;3.70;3.40;;;7.10;1.00;;;8.64;60.54;94801.63;614426;230;25706;-72
2021/04/11 01:15:50;;;;;;;3.60;3.10;;;7.50;1.00;;;8.71;60.20;94802.32;609529;233;24727;-73
2021/04/11 01:18:19;;;;;;;5.03;3.90;;;7.70;99.90;;;8.74;59.97;94795.34;616874;230;27724;-71
2021/04/11 01:20:48;;;;;;;3.30;3.00;;;7.70;1.00;;;8.73;60.45;94792.27;615586;229;24682;-71
2021/04/11 01:23:20;;;;;;;4.57;3.20;;;7.60;99.90;;;8.55;62.31;94796.00;603581;234;24748;-72
2021/04/11 01:25:49;;;;;;;3.53;3.17;;;7.30;99.90;;;8.48;61.81;94794.34;606084;233;27869;-71
2021/04/11 01:28:20;;;;;;;3.70;3.40;;;7.10;1.00;;;8.59;61.03;94784.68;616390;230;27743;-72
2021/04/11 01:30:49;;;;;;;3.40;3.00;;;7.40;99.90;;;8.69;60.33;94787.41;602693;233;32548;-71
2021/04/11 01:35:51;;;;;;;3.87;2.85;;;7.60;1.00;;;8.84;59.69;94782.79;646570;213;31572;-71
2021/04/11 01:38:21;;;;;;;5.30;3.33;;;7.60;1.00;;;8.94;58.88;94784.06;641633;220;23928;-70
2021/04/11 01:40:52;;;;;;;5.63;3.50;;;7.90;1.00;;;9.04;58.52;94780.28;641028;221;24694;-70
2021/04/11 01:45:55;;;;;;;4.33;3.13;;;7.90;1.00;;;9.16;57.84;94779.33;646851;212;31842;-71
2021/04/11 01:48:24;;;;;;;3.95;3.40;;;8.00;99.90;;;9.24;57.46;94775.80;636978;221;31770;-71
2021/04/11 01:50:53;;;;;;;4.62;3.22;;;8.10;1.00;;;9.29;57.41;94768.49;649970;215;31594;-71
2021/04/11 01:53:23;;;;;;;2.97;2.77;;;8.00;94.10;;;9.23;58.58;94767.02;655505;216;23476;-71
2021/04/11 01:55:52;;;;;;;4.28;2.87;;;7.80;99.90;;;9.21;58.28;94759.71;665093;211;31373;-72
2021/04/11 01:58:21;;;;;;;3.60;3.30;;;7.70;1.00;;;9.15;58.33;94760.20;671058;211;23747;-72
2021/04/11 02:00:56;;;;;;;3.20;3.00;;;7.70;99.90;;;9.13;57.82;94758.71;659993;211;24459;-71
2021/04/11 02:03:25;;;;;;;3.20;3.00;;;7.90;1.00;;;9.15;57.52;94758.92;655474;215;24470;-72
2021/04/11 02:05:54;;;;;;;3.43;3.13;;;7.90;1.00;;;9.15;57.38;94755.20;655767;215;24454;-71
2021/04/11 02:08:23;;;;;;;3.53;2.90;;;8.00;99.90;;;9.14;57.25;94754.73;655490;215;24590;-72
2021/04/11 02:10:52;;;;;;;3.00;2.77;;;7.90;1.00;;;9.17;58.21;94757.89;657260;215;24503;-72
2021/04/11 02:13:24;;;;;;;3.47;3.23;;;7.70;99.90;;;9.15;60.54;94758.48;655184;215;24548;-72
2021/04/11 02:15:53;;;;;;;3.30;2.80;;;7.40;9.00;;;8.99;60.83;94758.73;649256;215;32496;-71
2021/04/11 02:18:22;;;;;;;3.22;2.92;;;7.10;1.00;;;8.92;61.44;94761.45;651368;215;31592;-72
2021/04/11 02:20:51;;;;;;;3.37;2.87;;;6.90;1.00;;;8.56;64.00;94762.83;657051;215;23441;-71
2021/04/11 02:23:20;;;;;;;3.70;3.37;;;6.70;99.90;;;8.46;64.83;94755.31;654510;215;24487;-71
2021/04/11 02:25:49;;;;;;;3.20;2.90;;;6.70;1.00;;;8.46;63.23;94757.91;650749;216;31606;-71
2021/04/11 02:28:18;;;;;;;2.90;2.70;;;6.80;1.00;;;8.25;65.63;94763.28;633006;225;23492;-71
2021/04/11 02:30:47;;;;;;;3.00;2.80;;;6.80;99.90;;;8.23;64.86;94764.36;643237;221;24942;-71
2021/04/11 02:35:51;;;;;;;3.35;3.05;;;6.80;1.00;;;8.20;64.76;94765.23;646375;212;32170;-71
2021/04/11 02:38:20;;;;;;;3.20;3.00;;;6.80;1.00;;;8.26;64.41;94762.89;642074;221;23446;-70
2021/04/11 02:40:49;;;;;;;4.40;3.60;;;6.90;1.00;;;8.26;64.45;94765.48;640279;221;24516;-70
2021/04/11 02:43:18;;;;;;;3.10;2.90;;;7.10;99.90;;;8.32;64.14;94759.71;640932;220;24483;-71
2021/04/11 02:45:47;;;;;;;3.30;2.90;;;7.20;99.90;;;8.39;63.99;94755.27;648566;216;31721;-71
2021/04/11 02:48:16;;;;;;;4.30;3.00;;;7.30;99.90;;;8.48;63.18;94752.77;643900;219;31543;-71
2021/04/11 02:50:45;;;;;;;3.47;3.13;;;7.40;1.00;;;8.50;63.19;94752.34;670669;211;23424;-71
2021/04/11 02:53:17;;;;;;;3.45;2.53;;;7.40;1.00;;;8.54;62.73;94748.57;662511;211;31491;-71
2021/04/11 02:55:46;;;;;;;4.37;3.33;;;7.30;1.00;;;8.53;62.57;94746.44;668311;211;23417;-71
2021/04/11 02:58:15;;;;;;;3.08;2.87;;;7.30;15.80;;;8.60;61.89;94750.45;664508;211;31528;-71
2021/04/11 03:00:49;;;;;;;3.70;3.33;;;7.40;1.00;;;8.63;61.73;94750.31;660594;211;23437;-71
2021/04/11 03:03:18;;;;;;;3.77;3.50;;;7.40;99.90;;;8.65;61.47;94750.11;655903;215;24704;-70
2021/04/11 03:05:47;;;;;;;4.77;2.93;;;7.30;69.00;;;8.68;61.08;94750.72;642500;220;24505;-71
2021/04/11 03:08:16;;;;;;;3.83;3.60;;;7.40;1.00;;;8.68;60.97;94747.17;657379;215;24489;-71
2021/04/11 03:11:11;;;;;;;4.33;3.77;;;7.40;99.90;;;8.72;60.50;94745.11;655845;215;24460;-71
2021/04/11 03:13:40;;;;;;;3.40;3.10;;;7.40;99.90;;;8.74;60.06;94744.11;654895;215;25511;-72
2021/04/11 03:16:09;;;;;;;2.97;2.73;;;7.50;1.00;;;8.84;59.46;94744.56;656896;215;24698;-72
2021/04/11 03:18:38;;;;;;;3.40;3.10;;;7.80;1.00;;;8.83;59.59;94747.02;654465;216;24444;-72
2021/04/11 03:23:41;;;;;;;3.42;3.12;;;7.80;1.00;;;8.91;58.78;94744.27;647532;212;31571;-70
2021/04/11 03:26:18;;;;;;;3.30;2.67;;;7.90;17.10;;;8.97;58.74;94741.44;640871;221;25674;-70
2021/04/11 03:28:48;;;;;;;3.67;3.37;;;7.90;99.90;;;8.92;58.86;94742.63;643783;220;30956;-71
2021/04/11 03:31:20;;;;;;;3.63;3.43;;;7.80;1.00;;;8.94;58.58;94736.05;668720;211;24467;-72
2021/04/11 03:35:51;;;;;;;3.53;2.80;;;7.80;99.90;;;8.98;59.69;94740.10;647475;212;31609;-72
2021/04/11 03:38:20;;;;;;;3.73;3.50;;;7.80;99.90;;;8.76;60.89;94737.05;641590;221;24801;-71
2021/04/11 03:40:49;;;;;;;3.67;3.37;;;7.30;1.00;;;8.51;63.86;94739.03;640746;221;24520;-73
2021/04/11 03:43:19;;;;;;;5.77;3.17;;;7.10;1.00;;;8.49;62.95;94738.70;641796;221;27952;-72
2021/04/11 03:45:48;;;;;;;3.33;3.13;;;7.00;99.90;;;8.49;62.56;94738.70;655379;216;24455;-71
2021/04/11 03:48:18;;;;;;;3.30;2.87;;;7.00;1.00;;;8.53;63.94;94741.69;653674;215;29827;-71
2021/04/11 03:50:48;;;;;;;4.23;3.20;;;6.80;1.00;;;8.47;63.35;94743.19;670090;211;24401;-72
2021/04/11 03:53:18;;;;;;;4.17;3.77;;;6.80;1.00;;;8.32;65.65;94741.94;641843;219;24517;-72
2021/04/11 03:55:47;;;;;;;3.53;3.23;;;6.60;1.00;;;8.20;66.76;94748.48;646861;220;24560;-71
2021/04/11 03:58:19;;;;;;;3.37;3.07;;;6.50;1.00;;;8.21;66.05;94743.72;644731;220;24522;-73
2021/04/11 04:00:52;;;;;;;3.47;3.17;;;6.60;1.00;;;8.19;66.97;94747.92;641960;220;25665;-72
2021/04/11 04:03:21;;;;;;;3.30;3.10;;;6.40;1.00;;;7.99;68.39;94746.39;655438;215;24472;-72
2021/04/11 04:05:50;;;;;;;4.10;3.30;;;6.30;1.00;;;7.87;69.80;94749.80;625867;225;31168;-72
2021/04/11 04:08:19;;;;;;;5.40;4.00;;;6.10;1.00;;;7.80;69.85;94744.70;642035;220;23464;-72
2021/04/11 04:11:00;;;;;;;3.60;2.90;;;6.20;10.30;;;7.93;68.29;94744.27;650207;215;31820;-71
2021/04/11 04:16:17;;;;;;;3.30;3.00;;;6.20;99.90;;;7.81;69.80;94750.65;646367;212;32116;-71
2021/04/11 04:18:56;;;;;;;3.50;3.20;;;6.20;99.90;;;7.81;68.79;94752.52;634403;220;31803;-71
2021/04/11 04:24:06;;;;;;;3.92;2.75;;;6.40;1.00;;;7.95;67.80;94758.16;646051;212;31599;-70
2021/04/11 04:26:42;;;;;;;3.70;3.40;;;6.30;1.00;;;7.80;68.91;94760.03;639102;221;28797;-72
2021/04/11 04:32:28;;;;;;;3.42;3.12;;;6.00;1.00;;;7.54;71.31;94765.97;647030;216;42220;-72
2021/04/11 04:36:02;;;;;;;4.18;3.30;;;5.90;1.00;;;7.40;71.68;94770.21;645758;212;31625;-73
2021/04/11 04:38:42;;;;;;;3.97;3.67;;;5.80;1.00;;;7.40;71.95;94769.74;640765;221;23451;-73
2021/04/11 04:41:17;;;;;;;5.00;3.33;;;5.90;1.00;;;7.52;69.96;94771.78;634512;221;44168;-73
2021/04/11 04:46:41;;;;;;;3.53;3.20;;;5.80;1.00;;;7.38;71.68;94771.55;645941;212;32135;-70
2021/04/11 04:49:22;;;;;;;4.03;3.63;;;5.70;99.90;;;7.35;73.95;94772.63;641761;221;23527;-70
2021/04/11 04:51:54;;;;;;;3.58;3.28;;;5.70;99.90;;;7.30;73.59;94770.69;636399;220;31874;-71
2021/04/11 04:54:39;;;;;;;3.77;3.57;;;5.70;1.00;;;7.22;75.75;94770.50;640309;221;23481;-71
2021/04/11 04:57:11;;;;;;;3.47;3.17;;;5.70;26.10;;;7.22;74.82;94765.61;640729;220;24531;-72
2021/04/11 04:59:43;;;;;;;4.60;4.00;;;5.70;99.90;;;7.24;74.68;94772.08;651481;215;29891;-72
2021/04/11 05:02:12;;;;;;;4.30;4.00;;;5.60;34.80;;;7.26;75.35;94769.27;656252;215;24508;-71
2021/04/11 05:04:44;;;;;;;7.13;6.53;;;5.70;30.70;;;7.31;75.02;94770.19;656554;215;25486;-72
2021/04/11 05:07:13;;;;;;;3.67;3.35;;;5.80;24.50;;;7.46;73.52;94772.92;650958;215;31750;-71
2021/04/11 05:09:58;;;;;;;4.35;3.50;;;5.80;21.50;;;7.65;72.30;94771.79;650922;215;42690;-71
2021/04/11 05:15:24;;;;;;;3.90;3.00;;;6.20;1.00;;;7.96;70.48;94771.91;642456;216;32221;-72
2021/04/11 05:18:06;;;;;;;3.80;3.40;;;6.40;99.90;;;7.97;72.03;94772.89;646459;216;41995;-73
2021/04/11 05:20:34;;;;;;;4.07;3.67;;;6.30;1.00;;;7.86;73.58;94768.17;641112;220;24600;-72
2021/04/11 05:23:23;;;;;;;5.53;4.10;;;6.30;99.90;;;7.93;71.97;94766.84;640201;220;24516;-73
2021/04/11 05:25:59;;;;;;;3.80;3.37;;;6.40;1.00;;;8.04;71.40;94769.15;641127;221;24498;-71
2021/04/11 05:31:14;;;;;;;4.05;3.00;;;6.60;1.00;;;8.29;69.34;94771.94;647506;216;31778;-72
2021/04/11 05:36:04;;;;;;;4.80;3.15;;;7.00;99.90;;;8.62;67.70;94756.51;645532;216;31621;-73
2021/04/11 05:38:36;;;;;;;3.87;3.60;;;7.10;99.90;;;8.62;67.58;94760.13;642239;221;23474;-73
2021/04/11 05:41:07;;;;;;;4.53;4.13;;;7.20;99.90;;;8.74;66.22;94760.11;640928;220;26618;-73
2021/04/11 05:43:40;;;;;;;4.13;3.83;;;7.40;99.90;;;8.80;64.84;94765.52;640922;220;24512;-74
2021/04/11 05:46:10;;;;;;;4.90;3.40;;;7.60;99.90;;;8.88;64.36;94769.25;640980;221;24529;-74
2021/04/11 05:48:50;;;;;;;3.90;3.10;;;7.70;99.90;;;9.10;63.81;94766.58;638501;220;32297;-74
2021/04/11 05:51:37;;;;;;;3.60;3.33;;;7.80;99.90;;;9.16;63.76;94765.98;643628;220;23475;-74
2021/04/11 05:54:20;;;;;;;4.70;3.30;;;7.90;99.90;;;9.34;63.66;94763.39;645755;216;42202;-73
2021/04/11 05:56:50;;;;;;;3.63;3.23;;;7.90;99.90;;;9.49;63.13;94767.43;641221;221;23463;-72
2021/04/11 05:59:21;;;;;;;3.97;3.43;;;8.00;99.90;;;9.49;63.07;94768.45;641502;220;29869;-71
2021/04/11 06:01:52;;;;;;;3.50;3.20;;;8.10;99.90;;;9.63;63.25;94766.64;641289;220;24517;-73
2021/04/11 06:04:21;;;;;;;3.30;3.10;;;8.10;99.90;;;9.70;63.20;94768.53;641613;220;24576;-72
2021/04/11 06:07:04;;;;;;;3.97;3.67;;;8.20;99.90;;;9.72;64.02;94769.77;640102;221;24502;-73
2021/04/11 06:09:49;;;;;;;4.20;3.80;;;8.20;99.90;;;9.90;63.52;94768.02;640846;220;24501;-72
2021/04/11 06:12:28;;;;;;;3.90;3.60;;;8.30;99.90;;;9.92;63.05;94768.11;640574;220;25363;-72
2021/04/11 06:15:03;;;;;;;3.47;3.27;;;8.30;99.90;;;9.80;63.84;94768.53;638456;221;25910;-72
2021/04/11 06:17:32;;;;;;;4.13;3.73;;;8.30;99.90;;;9.90;63.70;94760.47;642379;221;28818;-73
2021/04/11 06:20:01;;;;;;;5.03;3.90;;;8.40;99.90;;;10.06;63.82;94763.33;641667;221;24513;-73
2021/04/11 06:22:52;;;;;;;4.03;3.47;;;8.40;99.90;;;10.39;63.73;94764.13;635052;221;31905;-73
2021/04/11 06:25:34;;;;;;;3.70;3.25;;;8.60;99.90;;;10.47;62.85;94760.03;635230;220;31789;-73
2021/04/11 06:28:25;;;;;;;4.60;3.73;;;8.80;99.90;;;10.49;62.63;94764.63;640544;221;23460;-73
2021/04/11 06:31:07;;;;;;;6.83;3.53;;;9.00;99.90;;;10.89;61.21;94756.03;645721;216;32233;-72
2021/04/11 06:35:59;;;;;;;4.30;3.90;;;9.30;99.90;;;10.94;63.08;94759.18;646845;216;42175;-73
2021/04/11 06:38:31;;;;;;;3.40;3.10;;;9.30;99.90;;;11.11;62.37;94752.48;635841;221;32094;-73
2021/04/11 06:41:22;;;;;;;3.47;3.27;;;9.30;99.90;;;11.36;59.60;94750.78;640489;221;23482;-75
2021/04/11 06:44:07;;;;;;;4.27;3.97;;;9.60;99.90;;;11.61;59.84;94745.70;641182;220;24850;-74
2021/04/11 06:52:30;;;;;;;5.60;3.30;;;10.30;99.90;;;11.78;57.61;94738.05;647207;216;31589;-72
2021/04/11 06:55:15;;;;;;;3.90;3.50;;;10.40;99.90;;;12.20;57.62;94726.72;644377;212;31752;-72
2021/04/11 06:57:51;;;;;;;3.40;2.80;;;10.50;99.90;;;12.72;57.18;94725.95;634678;220;32161;-73
2021/04/11 07:03:37;;;;;;;4.93;3.17;;;11.00;99.90;;;13.23;54.83;94721.95;646557;212;31587;-73
2021/04/11 07:06:31;;;;;;;3.80;3.50;;;11.20;99.90;;;-143.44;100.00;122422.95;642016;220;23482;-72
2021/04/11 07:09:12;;;;;;;3.60;3.30;;;11.30;99.90;;;;;;646971;216;32228;-72
2021/04/11 07:12:05;;;;;;;4.18;3.00;;;11.60;99.90;;;;;;633463;221;31786;-72
2021/04/11 07:14:51;;;;;;;3.60;2.70;;;11.80;99.90;;;;;;645438;216;34533;-71
2021/04/11 07:17:36;;;;;;;6.03;3.23;;;11.90;99.90;;;;;;637529;219;23620;-72
2021/04/11 07:22:55;;;;;;;2.90;2.70;;;12.20;99.90;;;;;;648074;212;32337;-72
2021/04/11 07:25:33;;;;;;;3.27;2.60;;;12.40;99.90;;;;;;640955;220;23527;-72
2021/04/11 07:28:02;;;;;;;3.70;3.40;;;12.60;99.90;;;;;;640320;220;24548;-73
2021/04/11 07:30:41;;;;;;;4.97;4.40;;;13.00;99.90;;;;;;640675;220;26550;-72
2021/04/11 07:36:00;;;;;;;3.60;2.40;;;13.50;99.90;;;15.74;48.35;94707.91;646940;213;42218;-72
2021/04/11 07:43:56;;;;;;;2.80;2.30;;;13.90;99.90;;;15.58;45.77;94704.37;646313;213;31602;-73
2021/04/11 07:46:31;;;;;;;2.63;2.30;;;13.70;99.90;;;15.28;43.65;94698.58;640696;221;23518;-72
2021/04/11 07:49:08;;;;;;;1.80;1.70;;;13.80;99.90;;;16.11;46.15;94704.53;635524;220;31777;-72
2021/04/11 07:51:53;;;;;;;2.40;2.20;;;14.10;99.90;;;16.63;46.01;94703.73;640964;221;22478;-71
2021/04/11 07:54:48;;;;;;;5.73;2.80;;;14.40;99.90;;;17.02;45.58;94704.05;639474;221;24605;-72
2021/04/11 07:57:39;;;;;;;2.65;2.20;;;14.70;99.90;;;17.22;43.13;94698.70;646044;216;31684;-73
2021/04/11 08:00:16;;;;;;;2.58;2.30;;;14.70;99.90;;;18.00;42.71;94696.56;636114;220;31736;-72
2021/04/11 08:03:19;;;;;;;3.03;2.77;;;15.10;99.90;;;17.92;42.75;94698.25;641021;221;23978;-72
2021/04/11 08:05:58;;;;;;;2.33;2.13;;;15.40;99.90;;;18.36;41.03;94693.47;640548;220;23533;-72
2021/04/11 08:08:35;;;;;;;2.50;2.30;;;15.60;99.90;;;18.48;40.80;94691.62;634750;221;31775;-73
2021/04/11 08:11:30;;;;;;;3.23;1.97;;;15.80;99.90;;;18.75;43.68;94690.88;639706;221;23482;-73
2021/04/11 08:14:31;;;;;;;3.90;2.37;;;16.10;99.90;;;18.50;41.20;94695.07;645305;216;31969;-72
2021/04/11 08:17:37;;;;;;;2.80;2.10;;;15.90;99.90;;;17.31;41.26;94693.30;631923;221;28096;-71
2021/04/11 08:20:27;;;;;;;2.20;1.90;;;15.80;99.90;;;17.59;42.90;94691.69;646008;216;31795;-71
2021/04/11 08:26:18;;;;;;;2.10;2.00;;;16.20;5.00;;;18.53;41.53;94705.95;647009;216;31598;-72
2021/04/11 08:29:08;;;;;;;2.12;1.98;;;16.40;99.90;;;18.55;40.72;94710.71;645452;216;31563;-72
2021/04/11 08:36:22;;;;;;;2.42;1.70;;;16.70;99.90;;;19.31;39.24;94718.97;645537;212;42723;-72
2021/04/11 08:39:38;;;;;;;2.80;2.03;;;17.30;99.90;;;19.49;38.23;94724.47;647019;216;31844;-72
2021/04/11 08:42:46;;;;;;;2.67;1.80;;;17.80;99.90;;;19.92;37.45;94729.58;646723;216;42160;-72
2021/04/11 08:45:19;;;;;;;2.50;2.30;;;17.70;99.90;;;18.47;36.39;94734.97;654185;215;24607;-72
2021/04/11 08:48:22;;;;;;;2.00;1.77;;;16.90;99.90;;;18.64;36.33;94727.18;669175;211;23608;-74
2021/04/11 08:51:19;;;;;;;2.33;1.60;;;17.00;99.90;;;19.69;35.46;94727.66;646109;216;31573;-73
2021/04/11 08:53:55;;;;;;;1.90;1.80;;;17.50;99.90;;;20.11;37.14;94730.11;643644;220;22511;-72
2021/04/11 08:56:28;;;;;;;4.07;1.70;;;17.90;99.90;;;20.60;34.08;94731.58;642243;220;23547;-73
2021/04/11 09:01:40;;;;;;;2.20;1.80;;;18.70;99.90;;;21.78;32.41;94725.75;618532;226;31910;-72
2021/04/11 09:04:30;;;;;;;1.87;1.67;;;20.60;99.90;;;23.35;30.55;94723.70;616421;229;23662;-72
2021/04/11 09:07:36;;;;;;;1.92;1.50;;;23.50;99.90;;;24.42;29.43;94722.46;645721;216;31618;-72
2021/04/11 09:10:40;;;;;;;2.30;2.10;;;23.30;99.90;;;26.15;28.64;94715.68;641062;221;25864;-72
2021/04/11 09:13:25;;;;;;;2.05;1.80;;;23.50;99.90;;;27.12;27.17;94716.75;647512;216;31575;-73
2021/04/11 09:16:11;;;;;;;2.27;1.87;;;25.30;99.90;;;26.46;26.76;94717.50;635946;221;22535;-73
2021/04/11 09:19:00;;;;;;;2.00;1.90;;;24.70;99.90;;;-143.44;100.00;122422.95;630312;224;23565;-73
2021/04/11 09:21:47;;;;;;;2.80;1.70;;;24.50;99.90;;;;;;615610;224;34881;-73
2021/04/11 09:30:05;;;;;;;1.60;1.37;;;25.70;99.90;;;;;;647249;216;31576;-73
2021/04/11 09:36:06;;;;;;;2.40;1.40;;;27.80;99.90;;;31.60;23.54;94696.96;619294;222;32616;-73
2021/04/11 09:39:07;;;;;;;2.70;1.37;;;26.80;99.90;;;31.99;21.55;94699.66;621682;227;31852;-73
2021/04/11 09:41:52;;;;;;;4.10;1.60;;;26.00;99.90;;;31.34;26.62;94696.78;627993;225;23610;-73
2021/04/11 09:44:52;;;;;;;1.77;1.27;;;27.10;99.90;;;31.18;22.43;94699.97;647271;212;42143;-72
2021/04/11 09:47:58;;;;;;;1.85;1.20;;;27.10;99.90;;;30.70;23.30;94699.36;619626;222;31927;-73
2021/04/11 09:50:54;;;;;;;1.60;1.50;;;26.70;99.90;;;31.62;22.20;94691.67;616691;229;23619;-73
2021/04/11 09:54:11;;;;;;;1.20;1.10;;;27.40;99.90;;;33.00;22.12;94692.84;646348;212;31686;-72
2021/04/11 09:57:12;;;;;;;1.45;1.20;;;27.60;99.90;;;34.79;21.41;94693.30;645447;216;31691;-72
2021/04/11 10:00:03;;;;;;;1.33;1.20;;;27.10;99.90;;;29.04;23.02;94688.68;647817;212;31682;-73
2021/04/11 10:02:59;;;;;;;1.77;1.33;;;25.60;99.90;;;30.52;22.58;94690.52;639110;221;22602;-75
2021/04/11 10:05:46;;;;;;;1.75;1.10;;;26.80;99.90;;;31.28;21.29;94687.80;645562;212;31826;-75
2021/04/11 10:08:54;;;;;;;1.13;1.03;;;25.90;99.90;;;30.61;23.51;94681.08;640811;221;22514;-73
2021/04/11 10:11:55;;;;;;;1.40;0.80;;;26.90;99.90;;;34.00;21.05;94676.59;646802;216;31564;-73
2021/04/11 10:14:30;;;;;;;1.77;1.07;;;28.30;99.90;;;33.18;21.81;94676.40;640984;221;22490;-73
2021/04/11 10:17:07;;;;;;;0.90;0.90;;;27.50;99.90;;;31.14;20.49;94670.50;630346;221;23615;-73
2021/04/11 10:19:42;;;;;;;2.43;0.80;;;26.70;99.90;;;29.00;22.64;94673.45;628331;224;23600;-74
2021/04/11 10:22:42;;;;;;;0.90;0.60;;;25.60;99.90;;;27.32;23.68;94669.09;623690;225;32054;-75
2021/04/11 10:25:29;;;;;;;1.05;0.60;;;25.10;99.90;;;29.43;21.51;94671.80;646563;216;42155;-73
2021/04/11 10:28:16;;;;;;;0.70;0.70;;;26.40;99.90;;;28.41;22.29;94664.67;641921;220;22552;-74
2021/04/11 10:30:45;;;;;;;1.00;0.80;;;25.90;99.90;;;29.68;22.19;94660.14;640921;221;24043;-72
2021/04/11 10:35:58;;;;;;;1.20;0.70;;;24.50;99.90;;;29.02;22.45;94653.91;645126;216;32771;-75
2021/04/11 10:38:31;;;;;;;1.30;0.80;;;24.90;99.90;;;27.92;23.07;94651.57;636016;220;31676;-74
2021/04/11 10:41:17;;;;;;;1.00;0.70;;;25.50;99.90;;;30.16;21.51;94650.16;637035;220;42206;-74
2021/04/11 10:43:50;;;;;;;1.65;0.60;;;24.90;99.90;;;28.70;22.06;94653.42;637365;220;32196;-75
2021/04/11 10:46:21;;;;;;;3.03;0.80;;;24.60;99.90;;;28.86;22.62;94650.78;641639;219;25651;-74
2021/04/11 10:49:15;;;;;;;3.72;3.35;;;24.90;99.90;;;30.24;21.46;94649.04;661685;211;31334;-74
2021/04/11 10:52:02;;;;;;;1.35;0.70;;;25.20;99.90;;;29.23;22.16;94648.11;664296;211;31395;-74
2021/04/11 10:55:16;;;;;;;1.77;0.80;;;24.70;99.90;;;27.89;24.02;94641.44;645782;212;31599;-73
2021/04/11 10:57:52;;;;;;;3.97;1.07;;;24.10;99.90;;;30.33;21.99;94641.13;640809;220;22508;-73
2021/04/11 11:00:29;;;;;;;1.20;1.00;;;26.10;99.90;;;29.69;21.92;94640.22;641513;219;31786;-73
2021/04/11 11:05:59;;;;;;;0.70;0.60;;;24.50;99.90;;;28.00;23.29;94637.83;645714;216;31525;-73
2021/04/11 11:08:37;;;;;;;0.80;0.80;;;23.40;99.90;;;26.13;24.86;94644.00;640610;221;22535;-73
2021/04/11 11:11:13;;;;;;;2.05;1.00;;;21.40;99.90;;;27.26;24.48;94641.66;634624;221;31957;-73
2021/04/11 11:14:01;;;;;;;0.70;0.70;;;22.20;99.90;;;25.87;26.17;94642.98;640060;221;22510;-73
2021/04/11 11:17:02;;;;;;;1.60;0.70;;;21.70;99.90;;;25.84;25.67;94641.75;646905;212;32086;-72
2021/04/11 11:20:06;;;;;;;1.65;0.70;;;21.40;99.90;;;25.85;25.67;94640.91;645223;212;31549;-72
2021/04/11 11:23:10;;;;;;;1.47;1.00;;;21.50;99.90;;;23.94;27.49;94639.17;640904;220;27803;-73
2021/04/11 11:28:43;;;;;;;1.00;0.70;;;19.80;99.90;;;24.35;27.53;94640.53;647137;212;31522;-73
2021/04/11 11:31:20;;;;;;;0.90;0.90;;;20.20;99.90;;;24.43;26.84;94643.27;641907;220;22510;-72
2021/04/11 11:38:44;;;;;;;0.80;0.70;;;19.80;99.90;;;23.41;28.45;94647.08;646505;212;31779;-72
2021/04/11 11:41:15;;;;;;;1.97;1.00;;;20.20;99.90;;;23.46;27.47;94642.03;641357;221;26203;-73
2021/04/11 11:44:02;;;;;;;1.63;1.10;;;20.10;99.90;;;23.66;27.37;94639.09;642651;219;27048;-72
2021/04/11 11:46:36;;;;;;;1.50;1.40;;;20.40;99.90;;;23.36;27.66;94644.64;640581;219;23537;-73
2021/04/11 11:49:23;;;;;;;1.23;1.03;;;20.00;99.90;;;22.89;28.80;94646.19;640935;221;24534;-73
2021/04/11 11:51:58;;;;;;;0.73;0.73;;;19.60;99.90;;;22.43;29.84;94651.18;668234;211;23447;-73
2021/04/11 11:54:58;;;;;;;1.40;0.70;;;19.60;99.90;;;22.73;28.91;94651.71;663831;211;31295;-74
2021/04/11 11:57:52;;;;;;;2.70;0.80;;;19.70;99.90;;;22.77;29.75;94655.45;618282;222;32038;-72
2021/04/11 12:00:40;;;;;;;1.60;1.10;;;19.90;99.90;;;22.15;31.21;94657.74;641908;220;23969;-72
2021/04/11 12:03:26;;;;;;;1.10;0.75;;;19.30;99.90;;;21.26;32.04;94655.67;646602;212;31531;-72
2021/04/11 12:08:53;;;;;;;1.00;0.50;;;19.00;99.90;;;21.65;31.10;94652.92;646225;212;35010;-73
2021/04/11 12:12:04;;;;;;;1.23;0.60;;;19.40;99.90;;;21.66;31.51;94648.85;646998;216;31588;-73
2021/04/11 12:17:55;;;;;;;0.90;0.50;;;19.10;99.90;;;21.05;32.75;94654.31;616685;222;43086;-73
2021/04/11 12:20:31;;;;;;;1.20;0.93;;;19.20;99.90;;;21.00;32.55;94659.92;625855;226;22528;-74
2021/04/11 12:23:01;;;;;;;2.53;0.70;;;19.30;99.90;;;20.82;32.50;94658.69;627947;225;29951;-73
2021/04/11 12:25:30;;;;;;;0.70;0.57;;;19.30;99.90;;;20.44;34.80;94663.75;627115;226;24006;-74
2021/04/11 12:28:23;;;;;;;0.80;0.80;;;19.10;99.90;;;20.38;33.25;94655.58;626384;226;23560;-73
2021/04/11 12:31:01;;;;;;;1.27;0.50;;;19.10;99.90;;;21.15;33.62;94658.98;647106;212;31570;-72
2021/04/11 12:36:01;;;;;;;1.25;0.70;;;19.50;99.90;;;21.69;32.18;94657.34;645673;216;31473;-72
2021/04/11 12:38:46;;;;;;;2.47;0.90;;;19.80;99.90;;;22.03;32.22;94657.67;640019;221;24613;-72
2021/04/11 12:41:21;;;;;;;1.43;0.87;;;20.10;99.90;;;22.24;30.77;94658.30;641753;221;24517;-73
2021/04/11 12:43:50;;;;;;;1.30;0.80;;;20.40;99.90;;;22.69;30.50;94657.86;640685;221;23526;-72
2021/04/11 12:46:34;;;;;;;1.10;1.00;;;20.60;99.90;;;21.56;31.78;94651.05;641785;219;23597;-73
2021/04/11 12:49:05;;;;;;;0.80;0.68;;;19.60;99.90;;;21.88;32.98;94647.50;663336;211;31432;-71
2021/04/11 12:51:43;;;;;;;2.60;1.20;;;20.10;99.90;;;22.43;31.49;94643.72;669659;211;22432;-72
2021/04/11 12:54:28;;;;;;;1.23;1.13;;;20.50;99.90;;;22.06;31.72;94647.59;668541;211;23447;-72